LIMC/MXP METAR and TAF weather

Enter ICAO airport designator
Station Type Date Time Source
LIMC METAR 2022/08/16 18:50 UTC NOAA

LIMC 161850Z 19003KT CAVOK 28/17 Q1011 NOSIG


Station Type Date Time Source
LIMC Decoded METAR 2022/08/16 18:50 UTC NOAA

Milano / Malpensa, Italy (LIMC) 45-37N 008-44E 211M
Aug 16, 2022 - 02:50 PM EDT / 2022.08.16 1850 UTC
Wind: from the S (190 degrees) at 3 MPH (3 KT):0
Visibility: greater than 7 mile(s):0
Temperature: 82 F (28 C)
Dew Point: 62 F (17 C)
Relative Humidity: 51%
Pressure (altimeter): 29.85 in. Hg (1011 hPa)
ob: LIMC 161850Z 19003KT CAVOK 28/17 Q1011 NOSIG
cycle: 19

Station Type Date Time Source
LIMC TAF 2022/08/16 18:21 UTC NOAA

TAF LIMC 161700Z 1618/1724 17010KT 9999 SCT040
BECMG 1618/1620 35007KT
TEMPO 1704/1710 SHRA
TEMPO 1710/1714 TSRA
TEMPO 1712/1715 17010KT
TEMPO 1716/1724 3000 TSGR

Example: see airport list